الصفحة الرئيسية
METAR-TAF:

METAR-TAF

مطار :

Rarotonga, جزر كوك

دائرة عرض: 21-12S, خط طول: 159-49W, ارتفاع: 7 متر

مراقبة الطقس الحالي

تاريخ ووقت الإصدار 25 دقيقة قبل الساعة 21:30UTC
ريح 10 عقدة من الغرب
درجة الحرارة 28°درجة مئوية
الرطوبة 70%
ضغط 1007 hPa
الرؤية: 9000 متر

METAR: NCRG 232130Z AUTO 26010KT 9000 SCT026/// 28/22 Q1007

زمن: 11:55 (21:55 UTC)

توقعات

تاريخ ووقت الإصدار 4ساعات و 46 دقيقة قبل الساعة 17:09UTC
التوقعات صالحة من23 الساعة 18 UTC إلى 24 الساعة 18 UTC
ريح 12 عقدة من الغرب
الرؤية 10 كم أو أكثر
غيوم قليلة على ارتفاع 2000 قدم

TAF: NCRG 231709Z 2318/2418 27012KT 9999 FEW020

أرصاد الطقس والتوقعات من أكثر من 4000 مطار (تقارير الطقس للمطار METAR والتنبؤ بالطقس بالمطارTAF).

المحطات المتاحة هي النقط الصفراء والحمراء على الخريطة.

حرك المؤشر فوق النقطة لمعرفة اسم المحطة.

ثم انقر لمعرفة أرصاد وتوقعات الطقس.

لتغيير الخارطة: اضغط على الأزرار الخضراء مع رمز الصليب الأسود للتكبير. على الزر الأخضر مع شرطة للتصغير، أو على الأسهم الخضراء للخرائط المجاورة.


METAR-TAF: